sensor_id;sensor_type;location;lat;lon;timestamp;temperature;humidity
14877;DHT22;69691;48.172;17.070;2023-07-24T00:00:39;24.00;90.10
14877;DHT22;69691;48.172;17.070;2023-07-24T00:03:06;24.00;90.20
14877;DHT22;69691;48.172;17.070;2023-07-24T00:05:32;23.90;90.30
14877;DHT22;69691;48.172;17.070;2023-07-24T00:07:57;23.90;90.40
14877;DHT22;69691;48.172;17.070;2023-07-24T00:10:23;23.90;90.50
14877;DHT22;69691;48.172;17.070;2023-07-24T00:12:49;23.80;90.50
14877;DHT22;69691;48.172;17.070;2023-07-24T00:15:15;23.80;90.60
14877;DHT22;69691;48.172;17.070;2023-07-24T00:17:41;23.70;90.70
14877;DHT22;69691;48.172;17.070;2023-07-24T00:20:07;23.70;90.80
14877;DHT22;69691;48.172;17.070;2023-07-24T00:22:33;23.70;90.90
14877;DHT22;69691;48.172;17.070;2023-07-24T00:24:59;23.60;91.00
14877;DHT22;69691;48.172;17.070;2023-07-24T00:27:25;23.50;91.00
14877;DHT22;69691;48.172;17.070;2023-07-24T00:29:51;23.50;91.20
14877;DHT22;69691;48.172;17.070;2023-07-24T00:32:16;23.50;91.30
14877;DHT22;69691;48.172;17.070;2023-07-24T00:34:42;23.50;91.40
14877;DHT22;69691;48.172;17.070;2023-07-24T00:37:08;23.40;91.50
14877;DHT22;69691;48.172;17.070;2023-07-24T00:39:36;23.40;91.70
14877;DHT22;69691;48.172;17.070;2023-07-24T00:42:02;23.30;91.80
14877;DHT22;69691;48.172;17.070;2023-07-24T00:44:29;23.30;91.90
14877;DHT22;69691;48.172;17.070;2023-07-24T00:46:54;23.20;92.00
14877;DHT22;69691;48.172;17.070;2023-07-24T00:49:21;23.20;92.10
14877;DHT22;69691;48.172;17.070;2023-07-24T00:51:47;23.20;92.30
14877;DHT22;69691;48.172;17.070;2023-07-24T00:54:16;23.10;92.40
14877;DHT22;69691;48.172;17.070;2023-07-24T00:56:45;23.10;92.50
14877;DHT22;69691;48.172;17.070;2023-07-24T00:59:11;23.10;92.60
14877;DHT22;69691;48.172;17.070;2023-07-24T01:01:37;23.10;92.70
14877;DHT22;69691;48.172;17.070;2023-07-24T01:04:05;23.10;92.80
14877;DHT22;69691;48.172;17.070;2023-07-24T01:06:32;23.10;92.70
14877;DHT22;69691;48.172;17.070;2023-07-24T01:08:58;23.00;92.80
14877;DHT22;69691;48.172;17.070;2023-07-24T01:11:36;23.00;93.00
14877;DHT22;69691;48.172;17.070;2023-07-24T01:14:14;23.00;93.10
14877;DHT22;69691;48.172;17.070;2023-07-24T01:16:47;22.90;93.50
14877;DHT22;69691;48.172;17.070;2023-07-24T01:25:10;22.90;93.70
14877;DHT22;69691;48.172;17.070;2023-07-24T01:27:45;22.90;93.30
14877;DHT22;69691;48.172;17.070;2023-07-24T01:30:13;22.80;93.30
14877;DHT22;69691;48.172;17.070;2023-07-24T01:32:41;22.80;93.40
14877;DHT22;69691;48.172;17.070;2023-07-24T01:35:08;22.70;93.50
14877;DHT22;69691;48.172;17.070;2023-07-24T01:37:36;22.70;93.60
14877;DHT22;69691;48.172;17.070;2023-07-24T01:40:06;22.70;93.90
14877;DHT22;69691;48.172;17.070;2023-07-24T01:42:36;22.70;94.00
14877;DHT22;69691;48.172;17.070;2023-07-24T01:45:03;22.60;93.90
14877;DHT22;69691;48.172;17.070;2023-07-24T01:47:30;22.60;94.00
14877;DHT22;69691;48.172;17.070;2023-07-24T01:49:56;22.60;94.00
14877;DHT22;69691;48.172;17.070;2023-07-24T01:52:22;22.60;94.10
14877;DHT22;69691;48.172;17.070;2023-07-24T01:54:48;22.60;94.20
14877;DHT22;69691;48.172;17.070;2023-07-24T01:57:16;22.60;94.20
14877;DHT22;69691;48.172;17.070;2023-07-24T01:59:42;22.60;94.20
14877;DHT22;69691;48.172;17.070;2023-07-24T02:02:10;22.60;94.40
14877;DHT22;69691;48.172;17.070;2023-07-24T02:04:36;22.60;94.40
14877;DHT22;69691;48.172;17.070;2023-07-24T02:07:03;22.50;94.50
14877;DHT22;69691;48.172;17.070;2023-07-24T02:09:29;22.50;94.60
14877;DHT22;69691;48.172;17.070;2023-07-24T02:11:55;22.50;94.80
14877;DHT22;69691;48.172;17.070;2023-07-24T02:14:21;22.50;94.60
14877;DHT22;69691;48.172;17.070;2023-07-24T02:16:47;22.50;94.70
14877;DHT22;69691;48.172;17.070;2023-07-24T02:19:12;22.50;94.70
14877;DHT22;69691;48.172;17.070;2023-07-24T02:21:38;22.40;94.70
14877;DHT22;69691;48.172;17.070;2023-07-24T02:24:06;22.40;94.70
14877;DHT22;69691;48.172;17.070;2023-07-24T02:26:32;22.40;94.80
14877;DHT22;69691;48.172;17.070;2023-07-24T02:28:57;22.40;94.80
14877;DHT22;69691;48.172;17.070;2023-07-24T02:31:23;22.40;94.90
14877;DHT22;69691;48.172;17.070;2023-07-24T02:33:49;22.40;95.30
14877;DHT22;69691;48.172;17.070;2023-07-24T02:36:15;22.40;95.00
14877;DHT22;69691;48.172;17.070;2023-07-24T02:38:41;22.40;95.00
14877;DHT22;69691;48.172;17.070;2023-07-24T02:41:07;22.30;95.00
14877;DHT22;69691;48.172;17.070;2023-07-24T02:43:35;22.30;95.10
14877;DHT22;69691;48.172;17.070;2023-07-24T02:46:04;22.30;95.10
14877;DHT22;69691;48.172;17.070;2023-07-24T02:48:30;22.30;95.10
14877;DHT22;69691;48.172;17.070;2023-07-24T02:50:55;22.30;95.20
14877;DHT22;69691;48.172;17.070;2023-07-24T02:53:21;22.30;95.30
14877;DHT22;69691;48.172;17.070;2023-07-24T02:55:47;22.30;95.30
14877;DHT22;69691;48.172;17.070;2023-07-24T02:58:13;22.30;95.20
14877;DHT22;69691;48.172;17.070;2023-07-24T03:00:40;22.30;95.10
14877;DHT22;69691;48.172;17.070;2023-07-24T03:03:06;22.30;95.20
14877;DHT22;69691;48.172;17.070;2023-07-24T03:05:34;22.30;95.20
14877;DHT22;69691;48.172;17.070;2023-07-24T03:08:00;22.40;95.20
14877;DHT22;69691;48.172;17.070;2023-07-24T03:10:26;22.40;95.20
14877;DHT22;69691;48.172;17.070;2023-07-24T03:12:52;22.40;95.10
14877;DHT22;69691;48.172;17.070;2023-07-24T03:15:19;22.40;95.30
14877;DHT22;69691;48.172;17.070;2023-07-24T03:17:45;22.30;94.90
14877;DHT22;69691;48.172;17.070;2023-07-24T03:20:17;22.30;94.90
14877;DHT22;69691;48.172;17.070;2023-07-24T03:22:44;22.30;94.90
14877;DHT22;69691;48.172;17.070;2023-07-24T03:25:10;22.30;94.70
14877;DHT22;69691;48.172;17.070;2023-07-24T03:27:36;22.20;95.00
14877;DHT22;69691;48.172;17.070;2023-07-24T03:30:03;22.20;95.00
14877;DHT22;69691;48.172;17.070;2023-07-24T03:32:29;22.20;95.00
14877;DHT22;69691;48.172;17.070;2023-07-24T03:34:55;22.20;95.10
14877;DHT22;69691;48.172;17.070;2023-07-24T03:37:21;22.20;95.20
14877;DHT22;69691;48.172;17.070;2023-07-24T03:39:48;22.20;95.30
14877;DHT22;69691;48.172;17.070;2023-07-24T03:42:28;22.30;95.20
14877;DHT22;69691;48.172;17.070;2023-07-24T03:44:55;22.30;95.10
14877;DHT22;69691;48.172;17.070;2023-07-24T03:47:22;22.30;95.00
14877;DHT22;69691;48.172;17.070;2023-07-24T03:49:49;22.30;95.00
14877;DHT22;69691;48.172;17.070;2023-07-24T03:52:15;22.30;94.90
14877;DHT22;69691;48.172;17.070;2023-07-24T03:54:41;22.30;95.00
14877;DHT22;69691;48.172;17.070;2023-07-24T03:57:07;22.30;95.00
14877;DHT22;69691;48.172;17.070;2023-07-24T03:59:33;22.40;94.90
14877;DHT22;69691;48.172;17.070;2023-07-24T04:01:59;22.40;94.80
14877;DHT22;69691;48.172;17.070;2023-07-24T04:04:25;22.40;94.70
14877;DHT22;69691;48.172;17.070;2023-07-24T04:06:51;22.40;94.70
14877;DHT22;69691;48.172;17.070;2023-07-24T04:09:17;22.50;94.70
14877;DHT22;69691;48.172;17.070;2023-07-24T04:11:43;22.50;94.50
14877;DHT22;69691;48.172;17.070;2023-07-24T04:14:10;22.60;94.50
14877;DHT22;69691;48.172;17.070;2023-07-24T04:16:36;22.60;94.40
14877;DHT22;69691;48.172;17.070;2023-07-24T04:19:02;22.70;94.40
14877;DHT22;69691;48.172;17.070;2023-07-24T04:21:29;22.70;94.30
14877;DHT22;69691;48.172;17.070;2023-07-24T04:23:54;22.80;94.10
14877;DHT22;69691;48.172;17.070;2023-07-24T04:26:20;22.80;94.00
14877;DHT22;69691;48.172;17.070;2023-07-24T04:28:46;22.90;94.00
14877;DHT22;69691;48.172;17.070;2023-07-24T04:31:12;23.00;94.10
14877;DHT22;69691;48.172;17.070;2023-07-24T04:33:38;23.10;94.10
14877;DHT22;69691;48.172;17.070;2023-07-24T04:36:04;23.20;94.60
14877;DHT22;69691;48.172;17.070;2023-07-24T04:38:30;23.50;94.20
14877;DHT22;69691;48.172;17.070;2023-07-24T04:40:56;23.70;94.00
14877;DHT22;69691;48.172;17.070;2023-07-24T04:43:22;24.00;93.50
14877;DHT22;69691;48.172;17.070;2023-07-24T04:45:48;24.20;93.20
14877;DHT22;69691;48.172;17.070;2023-07-24T04:48:14;24.50;92.90
14877;DHT22;69691;48.172;17.070;2023-07-24T04:50:40;24.70;92.40
14877;DHT22;69691;48.172;17.070;2023-07-24T04:53:05;24.90;91.80
14877;DHT22;69691;48.172;17.070;2023-07-24T04:55:31;25.10;91.40
14877;DHT22;69691;48.172;17.070;2023-07-24T04:57:57;25.30;90.80
14877;DHT22;69691;48.172;17.070;2023-07-24T05:00:23;25.30;90.50
14877;DHT22;69691;48.172;17.070;2023-07-24T05:02:48;25.30;90.00
14877;DHT22;69691;48.172;17.070;2023-07-24T05:05:14;25.30;89.10
14877;DHT22;69691;48.172;17.070;2023-07-24T05:07:40;25.40;88.60
14877;DHT22;69691;48.172;17.070;2023-07-24T05:10:06;25.30;88.30
14877;DHT22;69691;48.172;17.070;2023-07-24T05:12:32;25.30;88.30
14877;DHT22;69691;48.172;17.070;2023-07-24T05:14:58;25.30;88.40
14877;DHT22;69691;48.172;17.070;2023-07-24T05:17:24;25.30;88.30
14877;DHT22;69691;48.172;17.070;2023-07-24T05:19:50;25.30;88.30
14877;DHT22;69691;48.172;17.070;2023-07-24T05:22:15;25.40;87.90
14877;DHT22;69691;48.172;17.070;2023-07-24T05:24:41;25.50;87.40
14877;DHT22;69691;48.172;17.070;2023-07-24T05:27:07;25.60;87.10
14877;DHT22;69691;48.172;17.070;2023-07-24T05:29:33;25.70;86.50
14877;DHT22;69691;48.172;17.070;2023-07-24T05:31:59;25.70;86.20
14877;DHT22;69691;48.172;17.070;2023-07-24T05:34:25;25.80;85.90
14877;DHT22;69691;48.172;17.070;2023-07-24T05:36:51;25.90;85.20
14877;DHT22;69691;48.172;17.070;2023-07-24T05:39:17;26.00;84.50
14877;DHT22;69691;48.172;17.070;2023-07-24T05:41:43;26.00;84.50
14877;DHT22;69691;48.172;17.070;2023-07-24T05:44:14;26.10;84.20
14877;DHT22;69691;48.172;17.070;2023-07-24T05:46:41;26.10;84.20
14877;DHT22;69691;48.172;17.070;2023-07-24T05:49:07;26.10;84.40
14877;DHT22;69691;48.172;17.070;2023-07-24T05:51:33;26.10;84.80
14877;DHT22;69691;48.172;17.070;2023-07-24T05:53:59;26.30;84.60
14877;DHT22;69691;48.172;17.070;2023-07-24T05:56:25;26.60;83.90
14877;DHT22;69691;48.172;17.070;2023-07-24T05:58:50;26.90;82.60
14877;DHT22;69691;48.172;17.070;2023-07-24T06:01:16;27.30;80.90
14877;DHT22;69691;48.172;17.070;2023-07-24T06:03:42;27.60;79.20
14877;DHT22;69691;48.172;17.070;2023-07-24T06:06:08;27.80;77.80
14877;DHT22;69691;48.172;17.070;2023-07-24T06:08:34;28.00;77.20
14877;DHT22;69691;48.172;17.070;2023-07-24T06:11:00;28.00;75.90
14877;DHT22;69691;48.172;17.070;2023-07-24T06:13:28;28.10;75.40
14877;DHT22;69691;48.172;17.070;2023-07-24T06:15:54;28.20;74.80
14877;DHT22;69691;48.172;17.070;2023-07-24T06:18:38;28.40;74.50
14877;DHT22;69691;48.172;17.070;2023-07-24T06:21:04;28.50;73.00
14877;DHT22;69691;48.172;17.070;2023-07-24T06:23:30;28.60;72.70
14877;DHT22;69691;48.172;17.070;2023-07-24T06:25:55;28.70;71.70
14877;DHT22;69691;48.172;17.070;2023-07-24T06:28:21;28.70;71.50
14877;DHT22;69691;48.172;17.070;2023-07-24T06:30:47;28.80;70.90
14877;DHT22;69691;48.172;17.070;2023-07-24T06:33:13;28.80;70.30
14877;DHT22;69691;48.172;17.070;2023-07-24T06:35:39;28.90;70.10
14877;DHT22;69691;48.172;17.070;2023-07-24T06:38:05;29.00;69.70
14877;DHT22;69691;48.172;17.070;2023-07-24T06:40:33;29.00;69.30
14877;DHT22;69691;48.172;17.070;2023-07-24T06:42:59;29.10;68.30
14877;DHT22;69691;48.172;17.070;2023-07-24T06:45:25;29.10;68.20
14877;DHT22;69691;48.172;17.070;2023-07-24T06:47:51;29.10;68.00
14877;DHT22;69691;48.172;17.070;2023-07-24T06:50:17;29.10;68.10
14877;DHT22;69691;48.172;17.070;2023-07-24T06:52:43;29.10;67.70
14877;DHT22;69691;48.172;17.070;2023-07-24T06:55:08;29.20;67.80
14877;DHT22;69691;48.172;17.070;2023-07-24T06:57:34;29.40;67.10
14877;DHT22;69691;48.172;17.070;2023-07-24T07:00:00;29.40;65.40
14877;DHT22;69691;48.172;17.070;2023-07-24T07:02:26;29.50;65.90
14877;DHT22;69691;48.172;17.070;2023-07-24T07:04:54;29.70;65.60
14877;DHT22;69691;48.172;17.070;2023-07-24T07:07:19;29.70;65.00
14877;DHT22;69691;48.172;17.070;2023-07-24T07:09:45;29.80;63.80
14877;DHT22;69691;48.172;17.070;2023-07-24T07:12:11;29.80;63.50
14877;DHT22;69691;48.172;17.070;2023-07-24T07:14:37;29.90;62.40
14877;DHT22;69691;48.172;17.070;2023-07-24T07:17:03;30.00;62.50
14877;DHT22;69691;48.172;17.070;2023-07-24T07:19:29;30.00;62.40
14877;DHT22;69691;48.172;17.070;2023-07-24T07:21:55;30.10;62.10
14877;DHT22;69691;48.172;17.070;2023-07-24T07:24:21;30.20;62.60
14877;DHT22;69691;48.172;17.070;2023-07-24T07:26:47;30.20;62.50
14877;DHT22;69691;48.172;17.070;2023-07-24T07:29:13;30.10;62.40
14877;DHT22;69691;48.172;17.070;2023-07-24T07:31:39;30.10;63.00
14877;DHT22;69691;48.172;17.070;2023-07-24T07:34:05;30.00;63.20
14877;DHT22;69691;48.172;17.070;2023-07-24T07:36:31;29.80;63.40
14877;DHT22;69691;48.172;17.070;2023-07-24T07:38:57;29.60;64.20
14877;DHT22;69691;48.172;17.070;2023-07-24T07:41:22;29.50;64.90
14877;DHT22;69691;48.172;17.070;2023-07-24T07:43:49;29.40;65.40
14877;DHT22;69691;48.172;17.070;2023-07-24T07:46:15;29.40;66.50
14877;DHT22;69691;48.172;17.070;2023-07-24T07:48:41;29.50;65.70
14877;DHT22;69691;48.172;17.070;2023-07-24T07:51:07;29.60;66.00
14877;DHT22;69691;48.172;17.070;2023-07-24T07:53:33;29.80;65.20
14877;DHT22;69691;48.172;17.070;2023-07-24T07:56:00;30.00;62.90
14877;DHT22;69691;48.172;17.070;2023-07-24T07:58:26;30.00;62.40
14877;DHT22;69691;48.172;17.070;2023-07-24T08:00:52;30.10;60.80
14877;DHT22;69691;48.172;17.070;2023-07-24T08:03:18;30.20;60.80
14877;DHT22;69691;48.172;17.070;2023-07-24T08:05:44;30.20;60.30
14877;DHT22;69691;48.172;17.070;2023-07-24T08:08:10;30.30;61.10
14877;DHT22;69691;48.172;17.070;2023-07-24T08:10:39;30.40;61.40
14877;DHT22;69691;48.172;17.070;2023-07-24T08:13:06;30.40;61.30
14877;DHT22;69691;48.172;17.070;2023-07-24T08:15:36;30.50;61.40
14877;DHT22;69691;48.172;17.070;2023-07-24T08:18:04;30.50;60.80
14877;DHT22;69691;48.172;17.070;2023-07-24T08:20:30;30.60;60.50
14877;DHT22;69691;48.172;17.070;2023-07-24T08:22:57;30.60;60.00
14877;DHT22;69691;48.172;17.070;2023-07-24T08:25:23;30.70;59.00
14877;DHT22;69691;48.172;17.070;2023-07-24T08:27:49;30.70;58.80
14877;DHT22;69691;48.172;17.070;2023-07-24T08:30:15;30.70;58.20
14877;DHT22;69691;48.172;17.070;2023-07-24T08:32:40;30.70;58.80
14877;DHT22;69691;48.172;17.070;2023-07-24T08:35:06;30.70;58.50
14877;DHT22;69691;48.172;17.070;2023-07-24T08:37:32;30.70;58.70
14877;DHT22;69691;48.172;17.070;2023-07-24T08:39:59;30.70;58.70
14877;DHT22;69691;48.172;17.070;2023-07-24T08:42:25;30.70;59.00
14877;DHT22;69691;48.172;17.070;2023-07-24T08:44:52;30.70;59.40
14877;DHT22;69691;48.172;17.070;2023-07-24T08:47:19;30.80;59.30
14877;DHT22;69691;48.172;17.070;2023-07-24T08:49:46;30.70;59.10
14877;DHT22;69691;48.172;17.070;2023-07-24T08:52:13;30.70;59.50
14877;DHT22;69691;48.172;17.070;2023-07-24T08:54:39;30.70;59.50
14877;DHT22;69691;48.172;17.070;2023-07-24T08:57:06;30.70;59.60
14877;DHT22;69691;48.172;17.070;2023-07-24T08:59:36;30.70;59.70
14877;DHT22;69691;48.172;17.070;2023-07-24T09:02:02;30.60;59.70
14877;DHT22;69691;48.172;17.070;2023-07-24T09:04:31;30.70;59.40
14877;DHT22;69691;48.172;17.070;2023-07-24T09:06:57;30.80;58.80
14877;DHT22;69691;48.172;17.070;2023-07-24T09:09:29;30.90;57.70
14877;DHT22;69691;48.172;17.070;2023-07-24T09:11:56;30.90;57.40
14877;DHT22;69691;48.172;17.070;2023-07-24T09:14:28;30.90;57.20
14877;DHT22;69691;48.172;17.070;2023-07-24T09:17:06;30.90;57.20
14877;DHT22;69691;48.172;17.070;2023-07-24T09:19:36;31.00;57.30
14877;DHT22;69691;48.172;17.070;2023-07-24T09:22:16;31.00;57.80
14877;DHT22;69691;48.172;17.070;2023-07-24T09:24:52;31.20;57.00
14877;DHT22;69691;48.172;17.070;2023-07-24T09:27:19;31.20;57.00
14877;DHT22;69691;48.172;17.070;2023-07-24T09:29:46;31.20;57.00
14877;DHT22;69691;48.172;17.070;2023-07-24T09:32:19;31.30;56.50
14877;DHT22;69691;48.172;17.070;2023-07-24T09:34:47;31.30;56.60
14877;DHT22;69691;48.172;17.070;2023-07-24T09:37:33;31.30;56.70
14877;DHT22;69691;48.172;17.070;2023-07-24T09:40:00;31.40;57.20
14877;DHT22;69691;48.172;17.070;2023-07-24T09:42:34;31.50;57.20
14877;DHT22;69691;48.172;17.070;2023-07-24T09:45:02;31.50;57.00
14877;DHT22;69691;48.172;17.070;2023-07-24T09:47:28;31.60;56.90
14877;DHT22;69691;48.172;17.070;2023-07-24T09:49:55;31.60;56.60
14877;DHT22;69691;48.172;17.070;2023-07-24T09:52:21;31.60;56.40
14877;DHT22;69691;48.172;17.070;2023-07-24T09:55:21;31.70;55.90
14877;DHT22;69691;48.172;17.070;2023-07-24T09:57:54;31.80;55.60
14877;DHT22;69691;48.172;17.070;2023-07-24T10:00:21;31.80;54.60
14877;DHT22;69691;48.172;17.070;2023-07-24T10:02:47;31.80;54.10
14877;DHT22;69691;48.172;17.070;2023-07-24T10:05:14;31.90;53.60
14877;DHT22;69691;48.172;17.070;2023-07-24T10:07:41;32.00;51.00
14877;DHT22;69691;48.172;17.070;2023-07-24T10:10:07;32.00;50.90
14877;DHT22;69691;48.172;17.070;2023-07-24T10:12:33;32.10;50.80
14877;DHT22;69691;48.172;17.070;2023-07-24T10:15:00;32.20;50.50
14877;DHT22;69691;48.172;17.070;2023-07-24T10:17:40;32.20;49.60
14877;DHT22;69691;48.172;17.070;2023-07-24T10:20:09;32.30;49.80
14877;DHT22;69691;48.172;17.070;2023-07-24T10:22:36;32.40;49.60
14877;DHT22;69691;48.172;17.070;2023-07-24T10:25:08;32.50;49.10
14877;DHT22;69691;48.172;17.070;2023-07-24T10:27:43;32.50;48.90
14877;DHT22;69691;48.172;17.070;2023-07-24T10:30:10;32.70;48.60
14877;DHT22;69691;48.172;17.070;2023-07-24T10:32:45;32.80;48.50
14877;DHT22;69691;48.172;17.070;2023-07-24T10:35:12;33.00;47.50
14877;DHT22;69691;48.172;17.070;2023-07-24T10:37:38;33.00;46.80
14877;DHT22;69691;48.172;17.070;2023-07-24T10:40:05;33.10;46.90
14877;DHT22;69691;48.172;17.070;2023-07-24T10:42:31;33.30;46.70
14877;DHT22;69691;48.172;17.070;2023-07-24T10:45:07;33.50;46.50
14877;DHT22;69691;48.172;17.070;2023-07-24T10:47:34;33.60;45.80
14877;DHT22;69691;48.172;17.070;2023-07-24T10:50:00;33.70;45.50
14877;DHT22;69691;48.172;17.070;2023-07-24T10:52:30;33.80;45.20
14877;DHT22;69691;48.172;17.070;2023-07-24T10:54:56;33.80;45.10
14877;DHT22;69691;48.172;17.070;2023-07-24T10:57:26;33.80;45.00
14877;DHT22;69691;48.172;17.070;2023-07-24T10:59:52;33.80;44.60
14877;DHT22;69691;48.172;17.070;2023-07-24T11:02:18;33.80;44.20
14877;DHT22;69691;48.172;17.070;2023-07-24T11:04:45;33.80;44.40
14877;DHT22;69691;48.172;17.070;2023-07-24T11:07:12;33.80;44.10
14877;DHT22;69691;48.172;17.070;2023-07-24T11:09:39;33.80;44.10
14877;DHT22;69691;48.172;17.070;2023-07-24T11:12:13;33.90;44.10
14877;DHT22;69691;48.172;17.070;2023-07-24T11:14:47;33.90;43.70
14877;DHT22;69691;48.172;17.070;2023-07-24T11:17:16;34.00;43.60
14877;DHT22;69691;48.172;17.070;2023-07-24T11:19:42;34.00;43.50
14877;DHT22;69691;48.172;17.070;2023-07-24T11:22:08;34.10;42.70
14877;DHT22;69691;48.172;17.070;2023-07-24T11:24:42;34.00;42.50
14877;DHT22;69691;48.172;17.070;2023-07-24T11:27:15;34.00;42.80
14877;DHT22;69691;48.172;17.070;2023-07-24T11:29:48;34.00;42.70
14877;DHT22;69691;48.172;17.070;2023-07-24T11:32:21;33.90;42.70
14877;DHT22;69691;48.172;17.070;2023-07-24T11:34:49;33.90;42.90
14877;DHT22;69691;48.172;17.070;2023-07-24T11:37:16;33.80;42.80
14877;DHT22;69691;48.172;17.070;2023-07-24T11:39:42;33.80;42.20
14877;DHT22;69691;48.172;17.070;2023-07-24T11:42:08;33.70;42.00
14877;DHT22;69691;48.172;17.070;2023-07-24T11:44:34;33.60;42.40
14877;DHT22;69691;48.172;17.070;2023-07-24T11:47:03;33.60;42.50
14877;DHT22;69691;48.172;17.070;2023-07-24T11:49:31;33.60;42.10
14877;DHT22;69691;48.172;17.070;2023-07-24T11:52:02;33.60;42.20
14877;DHT22;69691;48.172;17.070;2023-07-24T11:54:29;33.70;42.80
14877;DHT22;69691;48.172;17.070;2023-07-24T11:56:55;33.70;43.10
14877;DHT22;69691;48.172;17.070;2023-07-24T11:59:21;33.80;43.60
14877;DHT22;69691;48.172;17.070;2023-07-24T12:01:47;33.80;43.60
14877;DHT22;69691;48.172;17.070;2023-07-24T12:04:14;34.00;43.80
14877;DHT22;69691;48.172;17.070;2023-07-24T12:06:41;34.10;43.70
14877;DHT22;69691;48.172;17.070;2023-07-24T12:09:07;34.30;43.70
14877;DHT22;69691;48.172;17.070;2023-07-24T12:11:42;34.40;43.80
14877;DHT22;69691;48.172;17.070;2023-07-24T12:14:09;34.60;43.40
14877;DHT22;69691;48.172;17.070;2023-07-24T12:16:36;34.70;43.10
14877;DHT22;69691;48.172;17.070;2023-07-24T12:19:02;34.80;42.90
14877;DHT22;69691;48.172;17.070;2023-07-24T12:21:28;34.90;42.90
14877;DHT22;69691;48.172;17.070;2023-07-24T12:23:54;35.00;42.80
14877;DHT22;69691;48.172;17.070;2023-07-24T12:26:19;35.10;43.00
14877;DHT22;69691;48.172;17.070;2023-07-24T12:28:45;35.20;42.20
14877;DHT22;69691;48.172;17.070;2023-07-24T12:31:11;35.20;42.50
14877;DHT22;69691;48.172;17.070;2023-07-24T12:33:37;35.20;42.70
14877;DHT22;69691;48.172;17.070;2023-07-24T12:36:03;35.10;42.60
14877;DHT22;69691;48.172;17.070;2023-07-24T12:38:29;35.00;42.70
14877;DHT22;69691;48.172;17.070;2023-07-24T12:40:55;35.00;43.20
14877;DHT22;69691;48.172;17.070;2023-07-24T12:43:21;34.90;43.20
14877;DHT22;69691;48.172;17.070;2023-07-24T12:45:47;34.80;43.30
14877;DHT22;69691;48.172;17.070;2023-07-24T12:48:13;34.80;43.50
14877;DHT22;69691;48.172;17.070;2023-07-24T12:50:40;34.80;43.70
14877;DHT22;69691;48.172;17.070;2023-07-24T12:53:05;34.90;43.80
14877;DHT22;69691;48.172;17.070;2023-07-24T12:55:31;35.00;43.80
14877;DHT22;69691;48.172;17.070;2023-07-24T12:57:59;35.10;43.40
14877;DHT22;69691;48.172;17.070;2023-07-24T13:00:27;35.20;43.40
14877;DHT22;69691;48.172;17.070;2023-07-24T13:02:55;35.20;43.20
14877;DHT22;69691;48.172;17.070;2023-07-24T13:05:21;35.30;42.90
14877;DHT22;69691;48.172;17.070;2023-07-24T13:07:46;35.40;41.80
14877;DHT22;69691;48.172;17.070;2023-07-24T13:10:12;35.40;41.20
14877;DHT22;69691;48.172;17.070;2023-07-24T13:12:38;35.40;40.80
14877;DHT22;69691;48.172;17.070;2023-07-24T13:15:04;35.40;40.70
14877;DHT22;69691;48.172;17.070;2023-07-24T13:17:31;35.40;40.70
14877;DHT22;69691;48.172;17.070;2023-07-24T13:19:57;35.40;41.00
14877;DHT22;69691;48.172;17.070;2023-07-24T13:22:22;35.40;41.50
14877;DHT22;69691;48.172;17.070;2023-07-24T13:24:48;35.40;41.60
14877;DHT22;69691;48.172;17.070;2023-07-24T13:27:14;35.40;41.90
14877;DHT22;69691;48.172;17.070;2023-07-24T13:29:40;35.40;42.00
14877;DHT22;69691;48.172;17.070;2023-07-24T13:32:06;35.30;42.10
14877;DHT22;69691;48.172;17.070;2023-07-24T13:34:32;35.10;42.10
14877;DHT22;69691;48.172;17.070;2023-07-24T13:36:58;35.00;42.40
14877;DHT22;69691;48.172;17.070;2023-07-24T13:39:24;35.00;42.60
14877;DHT22;69691;48.172;17.070;2023-07-24T13:41:49;34.90;42.80
14877;DHT22;69691;48.172;17.070;2023-07-24T13:44:15;34.80;42.70
14877;DHT22;69691;48.172;17.070;2023-07-24T13:46:41;34.90;42.70
14877;DHT22;69691;48.172;17.070;2023-07-24T13:49:07;35.00;43.20
14877;DHT22;69691;48.172;17.070;2023-07-24T13:51:33;35.10;42.60
14877;DHT22;69691;48.172;17.070;2023-07-24T13:53:59;35.30;42.30
14877;DHT22;69691;48.172;17.070;2023-07-24T13:56:25;35.40;42.30
14877;DHT22;69691;48.172;17.070;2023-07-24T13:58:53;35.50;42.30
14877;DHT22;69691;48.172;17.070;2023-07-24T14:01:19;35.50;42.40
14877;DHT22;69691;48.172;17.070;2023-07-24T14:03:44;35.50;42.20
14877;DHT22;69691;48.172;17.070;2023-07-24T14:06:10;35.40;42.20
14877;DHT22;69691;48.172;17.070;2023-07-24T14:08:36;35.20;42.40
14877;DHT22;69691;48.172;17.070;2023-07-24T14:11:02;35.00;42.00
14877;DHT22;69691;48.172;17.070;2023-07-24T14:13:28;34.90;41.80
14877;DHT22;69691;48.172;17.070;2023-07-24T14:15:54;34.80;41.80
14877;DHT22;69691;48.172;17.070;2023-07-24T14:18:20;34.60;42.10
14877;DHT22;69691;48.172;17.070;2023-07-24T14:20:46;34.60;42.40
14877;DHT22;69691;48.172;17.070;2023-07-24T14:23:13;34.50;42.60
14877;DHT22;69691;48.172;17.070;2023-07-24T14:25:38;34.40;42.90
14877;DHT22;69691;48.172;17.070;2023-07-24T14:28:04;34.40;43.10
14877;DHT22;69691;48.172;17.070;2023-07-24T14:30:30;34.30;43.30
14877;DHT22;69691;48.172;17.070;2023-07-24T14:32:56;34.30;43.50
14877;DHT22;69691;48.172;17.070;2023-07-24T14:35:22;34.30;43.70
14877;DHT22;69691;48.172;17.070;2023-07-24T14:37:48;34.30;43.50
14877;DHT22;69691;48.172;17.070;2023-07-24T14:40:13;34.40;43.60
14877;DHT22;69691;48.172;17.070;2023-07-24T14:42:39;34.40;43.30
14877;DHT22;69691;48.172;17.070;2023-07-24T14:45:07;34.50;43.30
14877;DHT22;69691;48.172;17.070;2023-07-24T14:47:33;34.50;43.30
14877;DHT22;69691;48.172;17.070;2023-07-24T14:49:59;34.60;43.40
14877;DHT22;69691;48.172;17.070;2023-07-24T14:52:25;34.60;43.30
14877;DHT22;69691;48.172;17.070;2023-07-24T14:54:50;34.60;43.30
14877;DHT22;69691;48.172;17.070;2023-07-24T14:57:16;34.60;43.40
14877;DHT22;69691;48.172;17.070;2023-07-24T14:59:42;34.70;43.40
14877;DHT22;69691;48.172;17.070;2023-07-24T15:02:08;34.80;43.30
14877;DHT22;69691;48.172;17.070;2023-07-24T15:04:34;34.90;42.90
14877;DHT22;69691;48.172;17.070;2023-07-24T15:06:59;34.90;42.90
14877;DHT22;69691;48.172;17.070;2023-07-24T15:09:25;34.90;43.10
14877;DHT22;69691;48.172;17.070;2023-07-24T15:11:51;34.90;43.70
14877;DHT22;69691;48.172;17.070;2023-07-24T15:14:17;34.80;43.10
14877;DHT22;69691;48.172;17.070;2023-07-24T15:16:43;34.70;43.20
14877;DHT22;69691;48.172;17.070;2023-07-24T15:19:09;34.60;43.50